Time;durP1;ratioP1;P1;durP2;ratioP2;P2;SDS_P1;SDS_P2;PMS_P1;PMS_P2;Temp;Humidity;BMP_temperature;BMP_pressure;BME280_temperature;BME280_humidity;BME280_pressure;Samples;Min_cycle;Max_cycle;Signal;HPM_P1;HPM_P2
2022/06/13 00:01:16;;;;;;;8.05;4.00;;;23.20;99.90;;;;;;4861231;29;20450;-82
2022/06/13 00:03:42;;;;;;;12.02;4.90;;;23.20;99.90;;;;;;4860847;29;20033;-81
2022/06/13 00:06:08;;;;;;;10.70;5.10;;;23.20;99.90;;;;;;4860169;29;20489;-82
2022/06/13 00:08:35;;;;;;;8.50;4.45;;;23.20;99.90;;;;;;4856153;29;20030;-82
2022/06/13 00:11:01;;;;;;;10.48;4.57;;;23.20;99.90;;;;;;4841977;29;20030;-82
2022/06/13 00:13:27;;;;;;;12.07;4.35;;;23.10;99.90;;;;;;4842498;29;20045;-81
2022/06/13 00:15:53;;;;;;;7.05;4.30;;;23.10;99.90;;;;;;4842420;29;20101;-81
2022/06/13 00:18:19;;;;;;;9.38;4.65;;;23.10;99.90;;;;;;4842480;29;20604;-81
2022/06/13 00:20:44;;;;;;;8.40;4.70;;;23.10;99.90;;;;;;4840687;29;20407;-81
2022/06/13 00:23:10;;;;;;;11.48;4.57;;;22.90;99.90;;;;;;4856013;29;20052;-82
2022/06/13 00:25:36;;;;;;;10.32;5.30;;;23.00;99.90;;;;;;4860331;29;20030;-81
2022/06/13 00:28:01;;;;;;;9.30;5.05;;;23.00;99.90;;;;;;4860969;29;20030;-82
2022/06/13 00:30:27;;;;;;;5.72;4.65;;;23.00;99.90;;;;;;4858767;29;20035;-82
2022/06/13 00:32:53;;;;;;;7.60;4.65;;;22.90;99.90;;;;;;4860628;29;20020;-81
2022/06/13 00:35:19;;;;;;;14.13;5.47;;;22.90;99.90;;;;;;4860863;29;20113;-81
2022/06/13 00:37:45;;;;;;;10.88;4.45;;;22.90;99.90;;;;;;4847674;29;20034;-81
2022/06/13 00:40:12;;;;;;;13.52;5.03;;;22.80;99.90;;;;;;4841734;29;20030;-81
2022/06/13 00:42:40;;;;;;;11.13;5.18;;;22.70;99.90;;;;;;4842265;29;20094;-82
2022/06/13 00:45:12;;;;;;;9.77;5.65;;;22.70;99.90;;;;;;4846504;29;20105;-81
2022/06/13 00:47:39;;;;;;;12.77;5.55;;;22.70;99.90;;;;;;4860412;29;20026;-81
2022/06/13 00:50:08;;;;;;;9.52;5.28;;;22.60;99.90;;;;;;4852510;29;20073;-81
2022/06/13 00:52:49;;;;;;;11.50;4.85;;;22.70;99.90;;;;;;4841895;29;20486;-82
2022/06/13 00:55:22;;;;;;;11.70;4.47;;;22.60;99.90;;;;;;4841452;29;20036;-81
2022/06/13 00:57:48;;;;;;;11.02;4.55;;;22.50;99.90;;;;;;4842005;29;20078;-81
2022/06/13 01:00:16;;;;;;;12.13;4.45;;;22.50;99.90;;;;;;4842045;29;20030;-81
2022/06/13 01:02:45;;;;;;;11.35;4.88;;;22.40;99.90;;;;;;4841932;29;20398;-81
2022/06/13 01:05:16;;;;;;;18.15;5.10;;;22.50;99.90;;;;;;4841762;29;20026;-81
2022/06/13 01:07:42;;;;;;;16.02;4.85;;;22.40;99.90;;;;;;4841917;29;20372;-82
2022/06/13 01:12:53;;;;;;;14.20;4.68;;;22.40;99.90;;;;;;4841821;29;20094;-81
2022/06/13 01:15:28;;;;;;;17.20;5.13;;;22.30;99.90;;;;;;4841788;29;20049;-81
2022/06/13 01:18:09;;;;;;;16.33;4.88;;;22.30;99.90;;;;;;4841819;29;20026;-81
2022/06/13 01:20:49;;;;;;;12.63;4.35;;;22.10;99.90;;;;;;4843507;29;20126;-81
2022/06/13 01:24:00;;;;;;;14.25;4.55;;;22.00;99.90;;;;;;4859098;29;20022;-82
2022/06/13 01:26:34;;;;;;;17.73;3.78;;;22.10;99.90;;;;;;4821413;29;20069;-81
2022/06/13 01:29:26;;;;;;;13.70;4.03;;;22.10;99.90;;;;;;4839901;29;20104;-82
2022/06/13 01:31:51;;;;;;;;;;;22.10;99.90;;;;;;4839905;29;20046;-81
2022/06/13 01:34:50;;;;;;;17.60;4.25;;;21.90;99.90;;;;;;4839608;29;19916;-81
2022/06/13 01:37:40;;;;;;;15.63;4.15;;;21.80;99.90;;;;;;4839479;29;20078;-81
2022/06/13 01:40:25;;;;;;;19.52;4.10;;;21.80;99.90;;;;;;4839737;29;20034;-81
2022/06/13 01:43:14;;;;;;;13.02;3.95;;;21.70;99.90;;;;;;4830892;29;20057;-81
2022/06/13 01:45:58;;;;;;;14.82;5.20;;;21.60;99.90;;;;;;4831419;29;20033;-82
2022/06/13 01:48:38;;;;;;;12.63;3.88;;;21.60;99.90;;;;;;4843010;29;20038;-81
2022/06/13 01:51:46;;;;;;;13.57;3.78;;;21.40;99.90;;;;;;4842892;29;20037;-81
2022/06/13 01:54:30;;;;;;;18.23;4.40;;;21.40;99.90;;;;;;4788590;30;20039;-82
2022/06/13 01:57:15;;;;;;;12.73;4.18;;;21.40;99.90;;;;;;4788337;30;20403;-81
2022/06/13 01:59:53;;;;;;;16.08;4.10;;;21.20;99.90;;;;;;4788578;30;20570;-81
2022/06/13 02:02:31;;;;;;;13.35;4.32;;;21.30;99.90;;;;;;4790486;29;20044;-81
2022/06/13 02:05:06;;;;;;;16.27;3.95;;;21.20;99.90;;;;;;4806247;29;20183;-81
2022/06/13 02:07:39;;;;;;;15.82;3.65;;;21.10;99.90;;;;;;4805887;29;20080;-82
2022/06/13 02:10:14;;;;;;;22.95;4.10;;;21.10;99.90;;;;;;4806254;29;20438;-81
2022/06/13 02:12:44;;;;;;;16.13;4.25;;;21.10;99.90;;;;;;4815004;29;20046;-81
2022/06/13 02:15:17;;;;;;;14.73;4.20;;;21.10;99.90;;;;;;4823925;29;20034;-81
2022/06/13 02:17:50;;;;;;;15.82;4.40;;;21.00;99.90;;;;;;4824021;29;20485;-81
2022/06/13 02:20:23;;;;;;;15.32;4.10;;;20.90;99.90;;;;;;4823638;29;20517;-81
2022/06/13 02:22:53;;;;;;;16.33;4.25;;;20.80;99.90;;;;;;4823926;29;20087;-82
2022/06/13 02:25:43;;;;;;;21.42;5.03;;;20.70;99.90;;;;;;4823923;29;20476;-82
2022/06/13 02:28:41;;;;;;;17.38;4.65;;;20.80;99.90;;;;;;4823613;29;20069;-82
2022/06/13 02:31:21;;;;;;;18.08;4.45;;;20.80;99.90;;;;;;4826531;29;20110;-82
2022/06/13 02:33:54;;;;;;;18.85;4.90;;;20.80;99.90;;;;;;4843027;29;20030;-82
2022/06/13 02:36:50;;;;;;;15.27;4.38;;;20.70;99.90;;;;;;4843914;29;20030;-81
2022/06/13 02:40:05;;;;;;;10.68;5.10;;;20.60;99.90;;;;;;4823846;29;20049;-81
2022/06/13 02:42:54;;;;;;;15.70;5.05;;;20.60;99.90;;;;;;4819714;29;20507;-82
2022/06/13 02:45:26;;;;;;;12.88;4.53;;;20.70;99.90;;;;;;4823850;29;20404;-81
2022/06/13 02:48:03;;;;;;;17.13;4.82;;;20.70;99.90;;;;;;4823511;29;20045;-81
2022/06/13 02:50:50;;;;;;;15.65;5.72;;;20.70;99.90;;;;;;4823108;29;20054;-81
2022/06/13 02:53:27;;;;;;;14.73;5.03;;;20.70;99.90;;;;;;4823077;29;20026;-81
2022/06/13 02:56:27;;;;;;;17.40;5.28;;;20.70;99.90;;;;;;4822927;29;20038;-81
2022/06/13 02:59:11;;;;;;;20.88;5.85;;;20.80;99.90;;;;;;4769069;30;20047;-81
2022/06/13 03:01:42;;;;;;;16.92;6.15;;;20.70;99.90;;;;;;4769190;30;20604;-82
2022/06/13 03:04:22;;;;;;;20.52;5.90;;;20.60;99.90;;;;;;4768807;30;20044;-81
2022/06/13 03:07:16;;;;;;;11.77;5.57;;;20.60;99.90;;;;;;4769219;30;20127;-81
2022/06/13 03:09:51;;;;;;;16.90;5.50;;;20.60;99.90;;;;;;4769280;30;20520;-82
2022/06/13 03:12:36;;;;;;;21.23;6.25;;;20.60;99.90;;;;;;4769221;30;20629;-81
2022/06/13 03:15:26;;;;;;;16.40;6.57;;;20.60;99.90;;;;;;4772556;29;20032;-81
2022/06/13 03:18:02;;;;;;;18.75;5.85;;;20.60;99.90;;;;;;4754123;30;20501;-81
2022/06/13 03:20:35;;;;;;;16.00;6.32;;;20.30;99.90;;;;;;4753145;30;20048;-81
2022/06/13 03:23:26;;;;;;;23.80;6.63;;;20.20;99.90;;;;;;4768649;30;20044;-81
2022/06/13 03:25:57;;;;;;;23.27;7.43;;;20.00;99.90;;;;;;4769088;30;20106;-81
2022/06/13 03:28:57;;;;;;;18.63;6.72;;;19.80;99.90;;;;;;4768946;30;20040;-81
2022/06/13 03:31:38;;;;;;;20.42;6.85;;;19.80;99.90;;;;;;4767554;30;20071;-81
2022/06/13 03:34:14;;;;;;;17.58;6.43;;;19.70;99.90;;;;;;4768991;29;20508;-81
2022/06/13 03:36:44;;;;;;;25.02;7.68;;;19.80;99.90;;;;;;4804601;29;20042;-81
2022/06/13 03:39:15;;;;;;;15.98;6.47;;;19.50;99.90;;;;;;4804788;29;20109;-81
2022/06/13 03:41:56;;;;;;;21.30;6.75;;;19.20;99.90;;;;;;4804865;29;20051;-82
2022/06/13 03:44:29;;;;;;;15.25;5.80;;;19.10;99.90;;;;;;4804836;29;20511;-81
2022/06/13 03:47:30;;;;;;;13.80;5.45;;;19.20;99.90;;;;;;4804840;29;20038;-82
2022/06/13 03:50:22;;;;;;;15.07;5.78;;;19.50;99.90;;;;;;4789358;29;20490;-82
2022/06/13 03:52:56;;;;;;;21.13;6.03;;;19.80;99.90;;;;;;4786694;30;20105;-82
2022/06/13 03:55:41;;;;;;;15.65;5.25;;;19.80;99.90;;;;;;4825598;29;20034;-81
2022/06/13 03:58:16;;;;;;;11.00;5.03;;;19.90;99.90;;;;;;4842700;29;20038;-81
2022/06/13 04:01:05;;;;;;;11.10;5.13;;;19.90;99.90;;;;;;4845788;29;20030;-82
2022/06/13 04:03:31;;;;;;;14.15;5.97;;;19.90;99.90;;;;;;4859020;29;20029;-82
2022/06/13 04:06:24;;;;;;;15.13;6.03;;;19.90;99.90;;;;;;4860564;29;20576;-82
2022/06/13 04:08:50;;;;;;;15.23;5.88;;;19.60;99.90;;;;;;4860861;29;20042;-82
2022/06/13 04:11:52;;;;;;;20.33;7.10;;;19.60;99.90;;;;;;4860888;29;20077;-81
2022/06/13 04:14:26;;;;;;;18.02;6.63;;;19.40;99.90;;;;;;4859584;29;20025;-83
2022/06/13 04:17:00;;;;;;;14.30;7.32;;;19.10;99.90;;;;;;4860473;29;20486;-83
2022/06/13 04:19:42;;;;;;;15.80;6.47;;;19.10;99.90;;;;;;4860411;29;20052;-83
2022/06/13 04:22:23;;;;;;;;;;;19.30;99.90;;;;;;4856551;29;20033;-83
2022/06/13 04:25:12;;;;;;;19.52;6.65;;;19.00;99.90;;;;;;4860757;29;20377;-81
2022/06/13 04:27:58;;;;;;;17.40;7.40;;;19.00;99.90;;;;;;4860762;29;20040;-82
2022/06/13 04:30:28;;;;;;;16.35;7.10;;;19.20;99.90;;;;;;4860516;29;20029;-82
2022/06/13 04:33:10;;;;;;;21.38;8.02;;;19.00;99.90;;;;;;4843912;29;20364;-82
2022/06/13 04:35:37;;;;;;;17.85;6.95;;;19.10;99.90;;;;;;4845050;29;20563;-81
2022/06/13 04:38:07;;;;;;;13.73;7.18;;;19.00;99.90;;;;;;4849701;29;20490;-81
2022/06/13 04:40:37;;;;;;;15.48;7.63;;;19.20;99.90;;;;;;4849451;29;20094;-82
2022/06/13 04:43:07;;;;;;;19.75;7.40;;;19.30;99.90;;;;;;4843843;29;20026;-81
2022/06/13 04:45:59;;;;;;;16.05;7.10;;;19.20;99.90;;;;;;4843054;29;20121;-81
2022/06/13 04:48:26;;;;;;;15.85;6.85;;;19.10;99.90;;;;;;4841193;29;20380;-80
2022/06/13 04:50:56;;;;;;;16.73;7.18;;;19.30;99.90;;;;;;4852131;29;20026;-81
2022/06/13 04:53:46;;;;;;;15.60;7.05;;;19.30;99.90;;;;;;4848083;29;20057;-81
2022/06/13 04:56:12;;;;;;;19.45;7.32;;;19.20;99.90;;;;;;4850066;29;20030;-80
2022/06/13 04:58:39;;;;;;;14.10;6.68;;;19.30;99.90;;;;;;4860593;29;20021;-80
2022/06/13 05:01:14;;;;;;;16.42;6.95;;;19.50;99.90;;;;;;4859865;29;20100;-80
2022/06/13 05:03:42;;;;;;;16.63;7.55;;;19.60;99.90;;;;;;4857738;29;20033;-81
2022/06/13 05:06:43;;;;;;;16.00;7.38;;;19.40;99.90;;;;;;4846548;29;20077;-80
2022/06/13 05:09:31;;;;;;;15.52;8.18;;;19.40;99.90;;;;;;4856041;29;20045;-80
2022/06/13 05:12:09;;;;;;;18.65;7.45;;;19.40;99.90;;;;;;4852793;29;20034;-81
2022/06/13 05:14:45;;;;;;;22.67;7.68;;;19.30;99.90;;;;;;4841831;29;20398;-80
2022/06/13 05:18:01;;;;;;;20.63;7.97;;;19.40;99.90;;;;;;4845074;29;20030;-80
2022/06/13 05:20:34;;;;;;;18.08;7.80;;;19.50;99.90;;;;;;4843181;29;20074;-81
2022/06/13 05:23:24;;;;;;;17.13;7.13;;;19.50;99.90;;;;;;4824780;29;20077;-80
2022/06/13 05:25:54;;;;;;;16.83;7.70;;;19.50;99.90;;;;;;4824934;29;20543;-80
2022/06/13 05:28:22;;;;;;;16.05;7.45;;;19.70;99.90;;;;;;4809603;29;20117;-80
2022/06/13 05:30:51;;;;;;;16.38;7.45;;;19.60;99.90;;;;;;4828242;29;20117;-81
2022/06/13 05:33:24;;;;;;;12.27;7.10;;;19.70;99.90;;;;;;4824165;29;20023;-81
2022/06/13 05:35:53;;;;;;;10.98;6.25;;;19.80;99.90;;;;;;4824220;29;20046;-78
2022/06/13 05:38:30;;;;;;;25.70;7.68;;;19.90;99.90;;;;;;4808392;29;20025;-81
2022/06/13 05:40:56;;;;;;;16.13;7.30;;;20.00;99.90;;;;;;4824030;29;20459;-81
2022/06/13 05:43:22;;;;;;;18.92;7.25;;;20.10;99.90;;;;;;4822688;29;20070;-80
2022/06/13 05:45:47;;;;;;;15.82;6.90;;;20.10;99.90;;;;;;4823549;29;20428;-81
2022/06/13 05:48:15;;;;;;;18.15;7.28;;;20.10;99.90;;;;;;4823459;29;20494;-81
2022/06/13 05:50:42;;;;;;;17.33;7.07;;;20.20;99.90;;;;;;4823260;29;20057;-81
2022/06/13 05:53:16;;;;;;;17.00;7.07;;;20.20;99.90;;;;;;4823556;29;20025;-81
2022/06/13 05:55:43;;;;;;;14.73;7.85;;;20.10;99.90;;;;;;4840086;29;20062;-81
2022/06/13 05:58:14;;;;;;;14.80;7.22;;;20.00;99.90;;;;;;4851763;29;20767;-80
2022/06/13 06:00:52;;;;;;;18.38;7.70;;;20.00;99.90;;;;;;4848012;29;20022;-81
2022/06/13 06:03:18;;;;;;;13.57;7.55;;;20.10;99.90;;;;;;4858699;29;20064;-81
2022/06/13 06:59:53;;;;;;;14.65;6.43;;;21.10;99.90;;;;;;4804605;29;20081;-76
2022/06/13 07:02:23;;;;;;;19.50;7.07;;;21.20;99.90;;;;;;4807042;29;20031;-79
2022/06/13 07:05:00;;;;;;;18.45;6.90;;;21.30;99.90;;;;;;4798206;29;20035;-75
2022/06/13 07:07:26;;;;;;;13.10;6.90;;;21.40;99.90;;;;;;4789181;29;20035;-76
2022/06/13 07:09:52;;;;;;;14.05;6.22;;;21.50;99.90;;;;;;4795686;29;20032;-75
2022/06/13 07:12:18;;;;;;;11.00;5.50;;;21.60;99.90;;;;;;4805323;29;20043;-75
2022/06/13 07:14:45;;;;;;;11.05;5.95;;;21.70;99.90;;;;;;4803066;29;20019;-75
2022/06/13 07:17:11;;;;;;;13.80;6.30;;;21.80;99.90;;;;;;4798872;29;20045;-75
2022/06/13 07:19:37;;;;;;;14.48;6.40;;;22.00;99.90;;;;;;4790633;29;20031;-74
2022/06/13 07:22:05;;;;;;;12.40;6.03;;;22.00;99.90;;;;;;4806516;29;20038;-76
2022/06/13 07:24:31;;;;;;;14.65;5.70;;;22.10;99.90;;;;;;4794360;29;20500;-75
2022/06/13 08:09:38;;;;;;;14.07;6.82;;;22.40;99.90;;;;;;5284872;24;20112;-78
2022/06/13 08:12:06;;;;;;;14.18;6.22;;;22.40;99.90;;;;;;4867801;29;20100;-79
2022/06/13 08:14:32;;;;;;;15.93;6.43;;;22.40;99.90;;;;;;4860762;29;20473;-78
2022/06/13 08:16:58;;;;;;;11.02;5.20;;;22.70;99.90;;;;;;4860567;29;20036;-78
2022/06/13 08:19:23;;;;;;;14.13;5.35;;;23.00;99.90;;;;;;4861701;29;20367;-79
2022/06/13 08:21:51;;;;;;;15.25;6.55;;;23.10;99.90;;;;;;4860662;29;20040;-79
2022/06/13 08:24:17;;;;;;;14.30;6.30;;;23.30;99.90;;;;;;4871263;29;20029;-79
2022/06/13 08:26:43;;;;;;;17.75;5.45;;;23.60;99.90;;;;;;4871850;29;20485;-79
2022/06/13 08:29:10;;;;;;;12.55;4.80;;;23.90;99.90;;;;;;4876275;29;20036;-79
2022/06/13 08:31:36;;;;;;;11.52;4.30;;;24.10;99.90;;;;;;4878592;29;20489;-79
2022/06/13 08:34:04;;;;;;;10.98;4.90;;;24.00;99.90;;;;;;4868990;29;20093;-79
2022/06/13 08:36:30;;;;;;;10.43;4.32;;;24.10;99.90;;;;;;4867735;29;20029;-79
2022/06/13 08:38:55;;;;;;;9.65;4.70;;;24.60;99.90;;;;;;4869116;29;20034;-79
2022/06/13 08:41:36;;;;;;;15.73;4.90;;;25.00;99.90;;;;;;4867938;29;20401;-80
2022/06/13 08:44:12;;;;;;;11.40;4.70;;;24.90;99.90;;;;;;4873088;29;20583;-80
2022/06/13 08:46:46;;;;;;;11.98;5.20;;;25.00;99.90;;;;;;4872750;29;20029;-79
2022/06/13 08:49:25;;;;;;;12.90;5.57;;;25.10;99.90;;;;;;4860814;29;20570;-80
2022/06/13 08:52:09;;;;;;;14.63;5.03;;;25.20;99.90;;;;;;4874776;29;20381;-79
2022/06/13 08:54:35;;;;;;;13.55;4.40;;;25.90;99.90;;;;;;4870956;29;20066;-79
2022/06/13 08:57:08;;;;;;;17.38;4.80;;;26.00;99.90;;;;;;4875003;29;20025;-79
2022/06/13 08:59:44;;;;;;;13.65;4.38;;;26.10;99.90;;;;;;4873852;29;20104;-79
2022/06/13 09:02:28;;;;;;;12.70;4.05;;;26.20;99.90;;;;;;4872367;29;20048;-79
2022/06/13 09:05:18;;;;;;;12.07;3.67;;;26.70;99.90;;;;;;4874630;29;20072;-79
2022/06/13 09:08:09;;;;;;;10.77;4.60;;;26.80;99.90;;;;;;4869235;29;20040;-79
2022/06/13 09:10:40;;;;;;;11.63;4.53;;;26.70;99.90;;;;;;4860147;29;20576;-80
2022/06/13 09:13:29;;;;;;;10.43;4.28;;;27.00;99.50;;;;;;4859488;29;20391;-79
2022/06/13 09:16:05;;;;;;;10.73;4.05;;;27.20;99.00;;;;;;4808891;29;20073;-80
2022/06/13 09:18:38;;;;;;;28.55;4.78;;;27.80;99.30;;;;;;4812808;29;20030;-80
2022/06/13 09:21:15;;;;;;;8.43;3.70;;;27.60;97.80;;;;;;4803112;29;20087;-80
2022/06/13 09:24:07;;;;;;;11.98;3.95;;;27.90;97.00;;;;;;4819379;29;20109;-80
2022/06/13 09:26:44;;;;;;;9.88;3.55;;;27.90;97.20;;;;;;4820194;29;20080;-75
2022/06/13 09:29:11;;;;;;;10.50;3.53;;;27.80;96.30;;;;;;4819754;29;20109;-79
2022/06/13 09:31:43;;;;;;;8.02;3.50;;;27.80;95.00;;;;;;4821259;29;20080;-79
2022/06/13 09:34:11;;;;;;;;;;;28.10;96.40;;;;;;4804658;29;20030;-79
2022/06/13 09:36:46;;;;;;;6.45;3.25;;;28.30;95.30;;;;;;4813831;29;20405;-79
2022/06/13 09:39:15;;;;;;;9.50;3.65;;;28.80;95.40;;;;;;4816007;29;20042;-79
2022/06/13 09:42:02;;;;;;;13.57;4.18;;;28.80;93.70;;;;;;4818475;29;20031;-78
2022/06/13 09:44:38;;;;;;;7.82;3.53;;;29.00;94.20;;;;;;4810561;29;20134;-80
2022/06/13 09:47:30;;;;;;;13.80;4.00;;;28.80;92.90;;;;;;4816571;29;20118;-80
2022/06/13 09:50:01;;;;;;;11.20;3.90;;;28.70;92.30;;;;;;4810650;29;20046;-80
2022/06/13 09:52:53;;;;;;;11.38;3.75;;;28.90;93.30;;;;;;4830226;29;20048;-80
2022/06/13 09:55:48;;;;;;;14.57;4.18;;;29.10;92.40;;;;;;4862996;29;20112;-80
2022/06/13 09:58:35;;;;;;;6.95;3.38;;;29.50;92.30;;;;;;4867497;29;20642;-79
2022/06/13 10:01:29;;;;;;;11.95;3.75;;;29.40;91.70;;;;;;4859873;29;20066;-80
2022/06/13 10:04:20;;;;;;;9.57;3.75;;;29.20;91.70;;;;;;4863021;29;20485;-80
2022/06/13 10:07:06;;;;;;;7.25;3.17;;;29.30;91.20;;;;;;4880338;29;20043;-80
2022/06/13 10:09:49;;;;;;;9.00;3.28;;;29.70;90.60;;;;;;4865083;29;20068;-80
2022/06/13 10:12:16;;;;;;;7.90;2.92;;;29.80;90.50;;;;;;4863177;29;20033;-80
2022/06/13 10:15:12;;;;;;;7.00;3.15;;;29.90;89.00;;;;;;4863542;29;20679;-80
2022/06/13 10:18:02;;;;;;;7.55;3.25;;;29.90;88.60;;;;;;4879171;29;20080;-80
2022/06/13 10:20:36;;;;;;;9.38;3.42;;;30.00;88.10;;;;;;4867418;29;20549;-80
2022/06/13 10:23:28;;;;;;;8.63;3.10;;;30.10;88.20;;;;;;4862765;29;20029;-76
2022/06/13 10:26:14;;;;;;;7.88;3.15;;;29.70;86.70;;;;;;4858795;29;20431;-76
2022/06/13 10:29:01;;;;;;;11.05;3.65;;;30.30;87.30;;;;;;4862580;29;20439;-77
2022/06/13 10:31:29;;;;;;;10.25;3.67;;;30.30;87.80;;;;;;4861524;29;20425;-76
2022/06/13 10:34:10;;;;;;;9.02;2.83;;;30.00;86.50;;;;;;4861552;29;20038;-76
2022/06/13 10:37:09;;;;;;;7.60;3.03;;;29.60;87.30;;;;;;4861941;29;20029;-76
2022/06/13 10:39:36;;;;;;;7.18;2.47;;;29.90;85.10;;;;;;4861671;29;20041;-77
2022/06/13 10:42:08;;;;;;;5.18;2.67;;;30.20;81.80;;;;;;4862502;29;20030;-76
2022/06/13 10:44:34;;;;;;;8.45;3.17;;;30.50;81.30;;;;;;4867377;29;20044;-76
2022/06/13 10:47:19;;;;;;;11.98;3.28;;;30.70;81.50;;;;;;4880602;29;20477;-76
2022/06/13 10:49:56;;;;;;;7.30;2.92;;;30.60;79.90;;;;;;4880526;29;20040;-76
2022/06/13 10:52:26;;;;;;;8.52;2.88;;;30.40;79.90;;;;;;4881191;29;20060;-76
2022/06/13 10:54:56;;;;;;;6.68;3.17;;;30.40;78.50;;;;;;4880760;29;20137;-76
2022/06/13 10:57:30;;;;;;;7.70;2.50;;;30.50;78.50;;;;;;4877320;29;20092;-75
2022/06/13 11:00:14;;;;;;;8.30;2.88;;;30.70;79.10;;;;;;4861140;29;20041;-80
2022/06/13 11:02:40;;;;;;;11.15;3.40;;;30.90;78.70;;;;;;4865411;29;20056;-80
2022/06/13 11:05:07;;;;;;;5.85;2.67;;;31.10;78.30;;;;;;4885115;29;20473;-81
2022/06/13 11:07:41;;;;;;;12.05;2.90;;;31.20;77.90;;;;;;4862665;29;20049;-81
2022/06/13 11:10:29;;;;;;;6.72;2.90;;;31.20;75.60;;;;;;4874667;29;20059;-81
2022/06/13 11:12:55;;;;;;;6.88;3.10;;;31.10;75.70;;;;;;4876713;29;20029;-81
2022/06/13 11:24:15;;;;;;;6.75;2.75;;;31.50;74.30;;;;;;4879718;29;20402;-81
2022/06/13 11:29:29;;;;;;;10.18;3.08;;;31.10;74.40;;;;;;4861495;29;20089;-81
2022/06/13 11:31:57;;;;;;;8.32;2.85;;;31.60;74.30;;;;;;4872481;29;20430;-80
2022/06/13 11:34:30;;;;;;;6.22;2.55;;;31.70;74.70;;;;;;4861414;29;20021;-81
2022/06/13 11:37:03;;;;;;;8.82;2.75;;;31.80;73.30;;;;;;4861851;29;20029;-81
2022/06/13 11:39:50;;;;;;;7.80;2.67;;;31.60;73.40;;;;;;4874152;29;20037;-81
2022/06/13 11:42:20;;;;;;;8.43;2.55;;;31.30;73.40;;;;;;4868596;29;20041;-81
2022/06/13 11:44:55;;;;;;;4.15;2.30;;;31.30;72.10;;;;;;4877239;29;20024;-81
2022/06/13 11:47:21;;;;;;;7.53;2.65;;;31.60;72.20;;;;;;4879761;29;20033;-82
2022/06/13 11:49:52;;;;;;;6.07;2.55;;;31.80;72.50;;;;;;4877209;29;20025;-82
2022/06/13 11:55:24;;;;;;;5.97;2.65;;;31.80;70.10;;;;;;4872439;29;20036;-81
2022/06/13 11:57:58;;;;;;;5.82;2.38;;;31.80;69.80;;;;;;4878645;29;20419;-81
2022/06/13 12:00:37;;;;;;;4.70;2.40;;;32.00;70.90;;;;;;4858778;29;20036;-81
2022/06/13 12:03:18;;;;;;;5.13;2.20;;;32.40;69.60;;;;;;4868218;29;20029;-81
2022/06/13 12:05:47;;;;;;;8.50;2.53;;;32.30;70.00;;;;;;4873519;29;20029;-80
2022/06/13 12:08:15;;;;;;;5.05;2.25;;;32.50;69.30;;;;;;4877132;29;20137;-81
2022/06/13 12:11:03;;;;;;;5.50;2.38;;;32.40;68.60;;;;;;4865651;29;20533;-80
2022/06/13 12:13:37;;;;;;;5.40;1.83;;;32.00;68.40;;;;;;4859752;29;20096;-81
2022/06/13 12:16:22;;;;;;;6.47;2.65;;;32.30;69.70;;;;;;4867385;29;20028;-80
2022/06/13 12:18:51;;;;;;;6.28;2.05;;;32.30;66.40;;;;;;4861061;29;20026;-80
2022/06/13 12:21:17;;;;;;;4.57;2.10;;;32.50;68.90;;;;;;4866748;29;20123;-81
2022/06/13 12:24:02;;;;;;;8.32;2.08;;;32.60;66.10;;;;;;4877836;29;20129;-81
2022/06/13 12:26:35;;;;;;;6.10;2.38;;;32.40;66.70;;;;;;4846644;29;20125;-80
2022/06/13 12:29:33;;;;;;;6.32;2.58;;;32.10;66.10;;;;;;4840173;29;20093;-80
2022/06/13 12:32:28;;;;;;;8.57;2.20;;;32.40;66.40;;;;;;4847530;29;20074;-80
2022/06/13 12:35:14;;;;;;;5.53;2.00;;;32.30;64.90;;;;;;4837661;29;20029;-80
2022/06/13 12:38:22;;;;;;;5.82;2.20;;;32.40;65.50;;;;;;4858478;29;20048;-80
2022/06/13 12:41:13;;;;;;;11.38;2.45;;;32.50;65.80;;;;;;4856155;29;20033;-80
2022/06/13 12:43:54;;;;;;;4.60;1.90;;;32.80;63.90;;;;;;4851667;29;20621;-80
2022/06/13 12:46:40;;;;;;;7.13;2.45;;;32.90;65.00;;;;;;4841332;29;20093;-80
2022/06/13 12:49:53;;;;;;;6.70;2.40;;;32.80;63.60;;;;;;4846689;29;20069;-80
2022/06/13 12:52:37;;;;;;;4.97;2.00;;;32.60;63.40;;;;;;4769369;29;20133;-81
2022/06/13 12:55:11;;;;;;;5.65;1.77;;;32.40;63.70;;;;;;4839760;29;20116;-80
2022/06/13 12:58:01;;;;;;;6.55;2.08;;;32.30;64.90;;;;;;4843175;29;20053;-80
2022/06/13 13:00:43;;;;;;;9.68;2.22;;;32.60;64.90;;;;;;4852719;29;20173;-80
2022/06/13 13:03:21;;;;;;;8.50;2.30;;;32.60;63.50;;;;;;4847531;29;20037;-81
2022/06/13 13:06:05;;;;;;;5.53;2.10;;;32.40;65.90;;;;;;4862499;29;20067;-80
2022/06/13 13:09:08;;;;;;;9.55;1.92;;;32.40;65.20;;;;;;4865119;29;20493;-80
2022/06/13 13:11:43;;;;;;;6.65;2.33;;;32.40;64.10;;;;;;4871490;29;20037;-80
2022/06/13 13:14:39;;;;;;;4.90;1.83;;;32.70;63.30;;;;;;4859583;29;20082;-80
2022/06/13 13:17:24;;;;;;;5.05;1.83;;;32.60;62.90;;;;;;4860058;29;20065;-80
2022/06/13 13:20:17;;;;;;;5.75;2.13;;;32.30;63.10;;;;;;4858078;29;20029;-80
2022/06/13 13:23:09;;;;;;;6.57;2.33;;;32.60;62.10;;;;;;4866254;29;20108;-80
2022/06/13 13:26:12;;;;;;;5.63;2.22;;;32.70;62.60;;;;;;4870979;29;20034;-80
2022/06/13 13:28:55;;;;;;;5.65;1.70;;;33.00;61.50;;;;;;4869860;29;20041;-81
2022/06/13 13:31:37;;;;;;;7.22;1.90;;;32.80;60.00;;;;;;4876939;29;20045;-80
2022/06/13 13:34:41;;;;;;;5.93;2.30;;;33.10;62.30;;;;;;4862887;29;20033;-80
2022/06/13 13:37:20;;;;;;;7.35;2.20;;;32.70;61.30;;;;;;4852958;29;20528;-77
2022/06/13 13:39:46;;;;;;;6.85;2.10;;;32.30;60.70;;;;;;4864107;29;20064;-78
2022/06/13 13:42:28;;;;;;;4.70;1.80;;;32.30;61.90;;;;;;4872106;29;20558;-78
2022/06/13 13:45:16;;;;;;;5.63;2.10;;;32.50;61.90;;;;;;4876625;29;20042;-78
2022/06/13 13:47:48;;;;;;;7.95;2.35;;;32.60;61.10;;;;;;4862989;29;20041;-78
2022/06/13 13:50:16;;;;;;;;;;;32.60;60.70;;;;;;4871079;29;20104;-77
2022/06/13 13:52:46;;;;;;;7.97;2.42;;;32.30;61.10;;;;;;4872242;29;20048;-78
2022/06/13 13:55:19;;;;;;;6.43;2.17;;;32.40;61.90;;;;;;4868955;29;20151;-77
2022/06/13 13:58:08;;;;;;;7.18;2.08;;;32.50;61.20;;;;;;4879780;29;20052;-77
2022/06/13 14:00:51;;;;;;;7.60;2.00;;;32.30;60.90;;;;;;4877891;29;20100;-78
2022/06/13 14:03:20;;;;;;;5.65;2.00;;;32.10;61.70;;;;;;4874383;29;20084;-78
2022/06/13 14:06:07;;;;;;;6.43;1.88;;;32.40;61.70;;;;;;4879432;29;20377;-77
2022/06/13 14:08:36;;;;;;;4.68;2.10;;;32.30;59.90;;;;;;4878607;29;20071;-77
2022/06/13 14:11:05;;;;;;;8.73;2.40;;;32.30;61.40;;;;;;4862110;29;20092;-75
2022/06/13 14:13:32;;;;;;;5.78;1.95;;;32.50;60.30;;;;;;4862324;29;20041;-77
2022/06/13 14:16:02;;;;;;;6.90;1.88;;;32.30;62.30;;;;;;4870904;29;20036;-79
2022/06/13 14:18:39;;;;;;;7.28;2.30;;;32.40;61.00;;;;;;4876021;29;20041;-78
2022/06/13 14:21:14;;;;;;;12.30;2.10;;;32.40;60.90;;;;;;4875060;29;20025;-79
2022/06/13 14:23:48;;;;;;;6.63;2.28;;;32.60;61.20;;;;;;4868393;29;20442;-79
2022/06/13 14:26:32;;;;;;;12.95;2.22;;;32.30;61.40;;;;;;4868786;29;20048;-79
2022/06/13 14:29:11;;;;;;;6.47;1.65;;;32.60;62.50;;;;;;4873107;29;20073;-78
2022/06/13 14:32:00;;;;;;;8.07;2.03;;;32.50;60.40;;;;;;4874814;29;20025;-79
2022/06/13 14:37:47;;;;;;;11.27;2.38;;;32.40;62.60;;;;;;4877200;29;20577;-79
2022/06/13 14:40:33;;;;;;;10.20;2.70;;;32.30;62.80;;;;;;4877553;29;20028;-79
2022/06/13 14:43:19;;;;;;;11.18;2.60;;;32.30;62.40;;;;;;4871552;29;20029;-79
2022/06/13 14:46:00;;;;;;;7.38;2.10;;;32.30;61.50;;;;;;4861759;29;20092;-79
2022/06/13 14:48:29;;;;;;;8.55;2.03;;;32.10;61.90;;;;;;4867961;29;20052;-79
2022/06/13 14:50:55;;;;;;;6.68;2.20;;;32.20;62.10;;;;;;4869371;29;20076;-79
2022/06/13 14:53:36;;;;;;;8.15;2.03;;;32.40;60.90;;;;;;4873886;29;20052;-78
2022/06/13 14:56:07;;;;;;;5.70;1.73;;;32.40;61.70;;;;;;4875740;29;20112;-79
2022/06/13 14:58:45;;;;;;;5.53;1.80;;;32.10;61.30;;;;;;4865913;29;20486;-79
2022/06/13 15:01:25;;;;;;;8.55;2.20;;;32.30;62.10;;;;;;4866865;29;20044;-79
2022/06/13 15:04:00;;;;;;;5.35;2.22;;;32.20;60.80;;;;;;4871667;29;20025;-79
2022/06/13 15:06:29;;;;;;;5.43;2.17;;;32.20;61.40;;;;;;4876191;29;20423;-80
2022/06/13 15:09:07;;;;;;;5.72;1.80;;;32.00;61.40;;;;;;4862526;29;20053;-77
2022/06/13 15:11:40;;;;;;;8.25;1.98;;;32.10;61.70;;;;;;4868117;29;20040;-80
2022/06/13 15:14:17;;;;;;;4.38;1.73;;;32.10;62.00;;;;;;4861809;29;20029;-78
2022/06/13 15:16:47;;;;;;;7.30;2.10;;;32.00;61.00;;;;;;4869134;29;20081;-79
2022/06/13 15:19:14;;;;;;;6.90;1.75;;;31.80;61.00;;;;;;4868884;29;20025;-79
2022/06/13 15:21:48;;;;;;;7.18;1.85;;;31.80;61.10;;;;;;4866737;29;20072;-79
2022/06/13 15:24:17;;;;;;;7.65;1.95;;;31.80;61.50;;;;;;4879398;29;20108;-79
2022/06/13 15:26:48;;;;;;;12.07;2.33;;;31.80;61.80;;;;;;4876312;29;20039;-79
2022/06/13 15:29:20;;;;;;;11.60;2.05;;;32.00;62.40;;;;;;4861882;29;20026;-79
2022/06/13 15:31:50;;;;;;;5.38;1.75;;;32.00;61.20;;;;;;4861490;29;20038;-79